Time;durP1;ratioP1;P1;durP2;ratioP2;P2;SDS_P1;SDS_P2;PMS_P1;PMS_P2;Temp;Humidity;BMP_temperature;BMP_pressure;BME280_temperature;BME280_humidity;BME280_pressure;Samples;Min_cycle;Max_cycle;Signal;HPM_P1;HPM_P2
2023/03/01 00:01:03;;;;;;;83.80;39.77;;;1.50;99.90;;;;;;5073295;28;20220;-66
2023/03/01 00:03:52;;;;;;;88.50;40.90;;;1.40;99.90;;;;;;5077316;28;20213;-67
2023/03/01 00:06:45;;;;;;;80.70;40.97;;;1.50;99.90;;;;;;5075111;28;20301;-67
2023/03/01 00:09:37;;;;;;;80.00;39.60;;;1.60;99.90;;;;;;5075518;28;20224;-66
2023/03/01 00:12:27;;;;;;;80.47;41.23;;;1.40;99.90;;;;;;5080105;28;20229;-66
2023/03/01 00:15:16;;;;;;;86.03;41.90;;;1.40;99.90;;;;;;5074433;28;20212;-66
2023/03/01 00:18:07;;;;;;;80.17;39.37;;;1.40;99.90;;;;;;5076531;28;20221;-67
2023/03/01 00:20:56;;;;;;;80.90;41.47;;;1.40;99.90;;;;;;5068021;28;20707;-67
2023/03/01 00:23:45;;;;;;;83.83;41.73;;;1.40;99.90;;;;;;5081099;28;20302;-68
2023/03/01 00:26:35;;;;;;;85.30;41.47;;;1.30;99.90;;;;;;5076560;28;20224;-67
2023/03/01 00:29:24;;;;;;;86.37;41.60;;;1.40;99.90;;;;;;5101232;27;21196;-67
2023/03/01 00:32:13;;;;;;;86.57;40.50;;;1.50;99.90;;;;;;5084113;28;20332;-67
2023/03/01 00:35:02;;;;;;;75.07;38.63;;;1.50;99.90;;;;;;5099036;27;20299;-67
2023/03/01 00:37:57;;;;;;;76.20;41.07;;;1.50;99.90;;;;;;5070685;28;20223;-67
2023/03/01 00:40:46;;;;;;;77.73;40.07;;;1.50;99.90;;;;;;5101609;27;20234;-66
2023/03/01 00:43:37;;;;;;;89.53;41.77;;;1.40;99.90;;;;;;5075292;28;20220;-67
2023/03/01 00:46:27;;;;;;;81.53;41.23;;;1.50;99.90;;;;;;5068518;28;20683;-66
2023/03/01 00:49:24;;;;;;;86.87;41.83;;;1.40;99.90;;;;;;5084175;28;20951;-66
2023/03/01 00:52:12;;;;;;;80.67;40.50;;;1.50;99.90;;;;;;5073474;28;20250;-67
2023/03/01 00:55:01;;;;;;;87.83;43.17;;;1.50;99.90;;;;;;5104071;27;20699;-68
2023/03/01 00:57:50;;;;;;;83.40;40.30;;;1.30;99.90;;;;;;5075729;28;20217;-67
2023/03/01 01:00:40;;;;;;;80.17;39.80;;;1.30;99.90;;;;;;5077799;28;20671;-67
2023/03/01 01:03:29;;;;;;;72.97;38.27;;;1.20;99.90;;;;;;5075699;28;20285;-67
2023/03/01 01:06:21;;;;;;;77.23;39.63;;;1.20;99.90;;;;;;5078195;28;20602;-68
2023/03/01 01:09:16;;;;;;;77.20;38.33;;;1.20;99.90;;;;;;5077393;28;20228;-67
2023/03/01 01:12:06;;;;;;;77.40;38.20;;;1.30;99.90;;;;;;5075374;28;20224;-67
2023/03/01 01:14:55;;;;;;;76.10;37.23;;;1.30;99.90;;;;;;5073673;28;20231;-68
2023/03/01 01:17:45;;;;;;;76.20;39.30;;;1.20;99.90;;;;;;5078796;28;20216;-68
2023/03/01 01:20:35;;;;;;;71.17;38.10;;;1.20;99.90;;;;;;5104782;27;20220;-70
2023/03/01 01:23:24;;;;;;;80.07;36.90;;;1.10;99.90;;;;;;5081323;28;20211;-69
2023/03/01 01:26:15;;;;;;;84.30;37.87;;;1.10;99.90;;;;;;5080546;28;20599;-70
2023/03/01 01:29:06;;;;;;;75.23;38.90;;;1.20;99.90;;;;;;5073861;28;20412;-67
2023/03/01 01:31:54;;;;;;;72.30;37.27;;;1.10;99.90;;;;;;5073923;28;20236;-69
2023/03/01 01:34:46;;;;;;;74.77;37.47;;;1.00;99.90;;;;;;5073492;28;20228;-67
2023/03/01 01:37:35;;;;;;;72.87;36.87;;;1.20;99.90;;;;;;5071432;28;20217;-68
2023/03/01 01:40:23;;;;;;;69.93;35.70;;;1.00;99.90;;;;;;5080880;28;20224;-69
2023/03/01 01:43:20;;;;;;;73.03;37.03;;;1.10;99.90;;;;;;5078147;28;20227;-66
2023/03/01 01:46:28;;;;;;;71.93;35.70;;;1.00;99.90;;;;;;5085191;28;20224;-66
2023/03/01 01:49:25;;;;;;;70.80;35.73;;;1.00;99.90;;;;;;5074067;28;20226;-66
2023/03/01 01:52:25;;;;;;;68.97;35.47;;;1.00;99.90;;;;;;5072053;28;20757;-67
2023/03/01 01:55:18;;;;;;;72.70;35.73;;;1.00;99.90;;;;;;5074356;28;20230;-65
2023/03/01 01:58:11;;;;;;;73.97;37.50;;;1.00;99.90;;;;;;5080283;28;20667;-66
2023/03/01 02:01:01;;;;;;;75.57;36.20;;;1.00;99.90;;;;;;5076777;28;20334;-67
2023/03/01 02:03:50;;;;;;;67.23;35.10;;;1.00;99.90;;;;;;5080864;28;20220;-65
2023/03/01 02:06:43;;;;;;;66.67;34.63;;;1.00;99.90;;;;;;5069718;28;20216;-67
2023/03/01 02:09:35;;;;;;;67.23;35.47;;;1.10;99.90;;;;;;5076598;28;20223;-67
2023/03/01 02:12:26;;;;;;;73.53;35.77;;;1.10;99.90;;;;;;5073676;28;20714;-67
2023/03/01 02:15:16;;;;;;;68.60;35.03;;;1.10;99.90;;;;;;5075626;28;20793;-67
2023/03/01 02:18:06;;;;;;;70.60;34.60;;;1.10;99.90;;;;;;5066212;28;20231;-68
2023/03/01 02:21:09;;;;;;;71.50;35.83;;;1.10;99.90;;;;;;5073206;28;20207;-67
2023/03/01 02:24:00;;;;;;;71.47;36.20;;;1.00;99.90;;;;;;5072757;28;20872;-67
2023/03/01 02:26:54;;;;;;;73.07;36.73;;;1.10;99.90;;;;;;5072627;28;20231;-67
2023/03/01 02:29:44;;;;;;;76.93;35.63;;;1.00;99.90;;;;;;5076745;28;20361;-67
2023/03/01 02:32:33;;;;;;;68.57;36.27;;;0.90;99.90;;;;;;5094747;27;20299;-68
2023/03/01 02:35:22;;;;;;;74.40;36.63;;;1.00;99.90;;;;;;5076863;28;20643;-68
2023/03/01 02:38:11;;;;;;;71.67;34.97;;;0.90;99.90;;;;;;5068377;28;20261;-69
2023/03/01 02:41:02;;;;;;;72.43;36.87;;;0.90;99.90;;;;;;5076640;28;20255;-68
2023/03/01 02:43:51;;;;;;;73.37;37.03;;;1.00;99.90;;;;;;5073417;28;20228;-68
2023/03/01 02:46:46;;;;;;;76.87;37.07;;;1.10;99.90;;;;;;5076072;28;20314;-68
2023/03/01 02:49:37;;;;;;;75.87;36.67;;;1.00;99.90;;;;;;5071190;28;20591;-68
2023/03/01 02:52:41;;;;;;;76.60;37.63;;;0.90;99.90;;;;;;5077511;28;20311;-66
2023/03/01 02:55:30;;;;;;;74.47;36.27;;;0.80;99.90;;;;;;5074342;28;20279;-67
2023/03/01 02:58:20;;;;;;;82.27;38.10;;;0.90;99.90;;;;;;5094092;28;20232;-68
2023/03/01 03:01:09;;;;;;;74.17;37.03;;;0.90;99.90;;;;;;5073187;27;20347;-67
2023/03/01 03:04:01;;;;;;;71.83;37.37;;;0.90;99.90;;;;;;5065345;28;20359;-68
2023/03/01 03:06:52;;;;;;;78.40;38.33;;;1.00;99.90;;;;;;5073211;28;20223;-67
2023/03/01 03:09:41;;;;;;;76.20;37.33;;;0.80;99.90;;;;;;5070386;28;20299;-68
2023/03/01 03:12:34;;;;;;;74.73;37.57;;;1.00;99.90;;;;;;5070421;28;20223;-69
2023/03/01 03:15:24;;;;;;;78.27;37.13;;;0.80;99.90;;;;;;5103150;27;20288;-69
2023/03/01 03:18:15;;;;;;;74.13;36.33;;;0.80;99.90;;;;;;5069780;28;20682;-67
2023/03/01 03:21:10;;;;;;;75.40;37.57;;;0.90;99.90;;;;;;5075075;28;20239;-68
2023/03/01 03:23:59;;;;;;;74.43;36.30;;;0.90;99.90;;;;;;5080471;28;20224;-67
2023/03/01 03:26:48;;;;;;;73.70;35.73;;;0.90;99.90;;;;;;5085753;28;20227;-67
2023/03/01 03:29:37;;;;;;;71.27;35.57;;;0.90;99.90;;;;;;5066888;28;20223;-68
2023/03/01 03:32:25;;;;;;;78.13;36.87;;;0.80;99.90;;;;;;5076599;28;20220;-65
2023/03/01 03:35:14;;;;;;;75.37;37.00;;;0.80;99.90;;;;;;5073292;28;20806;-66
2023/03/01 03:38:09;;;;;;;74.53;37.60;;;0.90;99.90;;;;;;5083394;27;20338;-67
2023/03/01 03:41:03;;;;;;;72.00;36.07;;;0.80;99.90;;;;;;5070925;28;20314;-67
2023/03/01 03:43:52;;;;;;;76.10;36.43;;;1.00;99.90;;;;;;5071916;28;20232;-67
2023/03/01 03:46:40;;;;;;;68.30;35.60;;;1.00;99.90;;;;;;5100082;27;20235;-68
2023/03/01 03:49:29;;;;;;;69.47;35.33;;;1.00;99.90;;;;;;5072462;28;20358;-67
2023/03/01 03:52:18;;;;;;;68.97;34.77;;;0.90;99.90;;;;;;5103792;27;20232;-65
2023/03/01 03:55:10;;;;;;;72.03;36.37;;;0.70;99.90;;;;;;5074686;28;20234;-66
2023/03/01 03:58:02;;;;;;;79.13;37.70;;;0.90;99.90;;;;;;5073350;28;20237;-69
2023/03/01 04:00:52;;;;;;;77.93;36.73;;;0.80;99.90;;;;;;5073307;28;20630;-66
2023/03/01 04:03:46;;;;;;;77.13;36.20;;;0.70;99.90;;;;;;5072483;27;20216;-66
2023/03/01 04:06:35;;;;;;;74.17;36.27;;;0.80;99.90;;;;;;5068065;28;20244;-65
2023/03/01 04:09:23;;;;;;;74.30;36.47;;;0.80;99.90;;;;;;5080086;28;20268;-64
2023/03/01 04:12:14;;;;;;;72.47;36.23;;;0.90;99.90;;;;;;5082250;28;20216;-64
2023/03/01 04:15:12;;;;;;;75.20;36.43;;;0.80;99.90;;;;;;5080064;28;20223;-65
2023/03/01 04:18:02;;;;;;;75.33;36.60;;;0.80;99.90;;;;;;5082760;28;20227;-64
2023/03/01 04:20:55;;;;;;;73.37;36.63;;;0.70;99.90;;;;;;5071848;28;20220;-68
2023/03/01 04:23:44;;;;;;;74.87;34.90;;;0.60;99.90;;;;;;5077590;28;20235;-66
2023/03/01 04:26:33;;;;;;;75.17;35.70;;;0.70;99.90;;;;;;5106902;27;20225;-67
2023/03/01 04:29:23;;;;;;;74.50;36.67;;;0.80;99.90;;;;;;5073700;28;20219;-69
2023/03/01 04:32:15;;;;;;;70.00;35.97;;;0.80;99.90;;;;;;5072605;28;20714;-67
2023/03/01 04:35:05;;;;;;;73.43;36.83;;;0.80;99.90;;;;;;5076347;28;20228;-68
2023/03/01 04:37:54;;;;;;;74.10;36.50;;;0.80;99.90;;;;;;5076952;28;20223;-66
2023/03/01 04:40:42;;;;;;;73.93;35.73;;;0.90;99.90;;;;;;5076892;28;20228;-68
2023/03/01 04:43:31;;;;;;;71.83;36.50;;;0.80;99.90;;;;;;5077575;28;20602;-67
2023/03/01 04:46:27;;;;;;;80.07;37.97;;;0.80;99.90;;;;;;5074905;28;20668;-67
2023/03/01 04:49:17;;;;;;;77.70;38.03;;;0.80;99.90;;;;;;5091838;27;20216;-68
2023/03/01 04:52:06;;;;;;;82.37;38.10;;;0.70;99.90;;;;;;5070330;28;20219;-68
2023/03/01 04:54:55;;;;;;;78.87;37.13;;;0.60;99.90;;;;;;5078314;28;20230;-69
2023/03/01 04:57:44;;;;;;;76.27;36.50;;;0.60;99.90;;;;;;5083516;28;20228;-70
2023/03/01 05:00:33;;;;;;;73.83;35.50;;;0.60;99.90;;;;;;5071672;28;20333;-66
2023/03/01 05:03:23;;;;;;;77.97;38.40;;;0.70;99.90;;;;;;5074230;28;20219;-67
2023/03/01 05:06:12;;;;;;;75.27;37.17;;;0.80;99.90;;;;;;5081396;28;20242;-68
2023/03/01 05:09:01;;;;;;;79.80;36.93;;;0.80;99.90;;;;;;5069635;28;20765;-67
2023/03/01 05:11:51;;;;;;;77.47;35.93;;;0.80;99.90;;;;;;5069122;28;20228;-67
2023/03/01 05:14:40;;;;;;;70.10;35.53;;;0.80;99.90;;;;;;5064153;28;20224;-66
2023/03/01 05:17:28;;;;;;;78.37;37.07;;;0.80;99.90;;;;;;5076256;28;20318;-67
2023/03/01 05:20:22;;;;;;;79.53;38.33;;;0.70;99.90;;;;;;5073979;28;21429;-68
2023/03/01 05:23:11;;;;;;;76.50;36.10;;;0.70;99.90;;;;;;5076221;28;20721;-67
2023/03/01 05:26:00;;;;;;;75.20;35.50;;;0.70;99.90;;;;;;5067820;28;20247;-67
2023/03/01 05:28:49;;;;;;;75.43;35.30;;;0.70;99.90;;;;;;5072753;28;20230;-66
2023/03/01 05:31:38;;;;;;;77.63;35.73;;;0.80;99.90;;;;;;5073735;28;20227;-66
2023/03/01 05:34:31;;;;;;;74.87;35.57;;;0.80;99.90;;;;;;5077518;28;20220;-65
2023/03/01 05:37:21;;;;;;;75.10;35.80;;;0.70;99.90;;;;;;5070411;28;20614;-66
2023/03/01 05:40:15;;;;;;;71.40;34.70;;;0.70;99.90;;;;;;5083434;28;20230;-65
2023/03/01 05:43:05;;;;;;;71.03;35.23;;;0.80;99.90;;;;;;5081934;28;20219;-64
2023/03/01 05:45:53;;;;;;;77.17;36.33;;;0.80;99.90;;;;;;5069669;28;20297;-64
2023/03/01 05:48:42;;;;;;;72.73;35.63;;;0.80;99.90;;;;;;5078704;28;20306;-64
2023/03/01 05:51:33;;;;;;;75.30;36.60;;;0.90;99.90;;;;;;5103674;27;20885;-65
2023/03/01 05:54:23;;;;;;;73.80;35.67;;;0.90;99.90;;;;;;5081777;27;20223;-65
2023/03/01 05:57:12;;;;;;;71.33;36.20;;;0.90;99.90;;;;;;5080433;28;20228;-65
2023/03/01 06:00:01;;;;;;;70.67;34.47;;;0.90;99.90;;;;;;5070225;28;21055;-64
2023/03/01 06:03:00;;;;;;;71.93;35.57;;;1.00;99.90;;;;;;5075777;28;20224;-64
2023/03/01 06:05:49;;;;;;;75.27;35.40;;;0.90;99.90;;;;;;5071260;28;20223;-66
2023/03/01 06:08:38;;;;;;;73.27;35.57;;;1.00;99.90;;;;;;5069813;28;20219;-65
2023/03/01 06:11:28;;;;;;;72.43;35.73;;;1.10;99.90;;;;;;5073264;28;20224;-66
2023/03/01 06:14:17;;;;;;;71.03;36.87;;;1.10;99.90;;;;;;5070537;28;20236;-64
2023/03/01 06:17:06;;;;;;;69.20;34.43;;;1.20;99.90;;;;;;5094920;27;20883;-65
2023/03/01 06:19:54;;;;;;;76.80;36.00;;;1.10;99.90;;;;;;5072321;28;20240;-66
2023/03/01 06:22:44;;;;;;;76.10;37.07;;;1.20;99.90;;;;;;5067389;28;20222;-65
2023/03/01 06:25:32;;;;;;;76.20;36.50;;;1.20;99.90;;;;;;5077741;27;20227;-64
2023/03/01 06:28:23;;;;;;;71.93;36.43;;;1.20;99.90;;;;;;5103134;27;20224;-66
2023/03/01 06:31:12;;;;;;;67.23;34.17;;;1.40;99.90;;;;;;5072953;28;20215;-66
2023/03/01 06:34:02;;;;;;;70.40;34.93;;;1.40;99.90;;;;;;5064452;28;20579;-65
2023/03/01 06:36:50;;;;;;;63.50;34.10;;;1.40;99.90;;;;;;5069747;28;20231;-67
2023/03/01 06:39:40;;;;;;;66.40;33.77;;;1.50;99.90;;;;;;5077860;28;20750;-67
2023/03/01 06:42:28;;;;;;;74.43;36.33;;;1.50;99.90;;;;;;5074781;28;20765;-66
2023/03/01 06:45:20;;;;;;;72.23;34.60;;;1.60;99.90;;;;;;5069296;28;20686;-66
2023/03/01 06:48:09;;;;;;;67.93;34.50;;;1.60;99.90;;;;;;5068977;28;20984;-66
2023/03/01 06:51:00;;;;;;;67.87;33.77;;;1.60;99.90;;;;;;5067431;28;20598;-66
2023/03/01 06:53:49;;;;;;;69.67;34.30;;;1.50;99.90;;;;;;5081429;28;20272;-68
2023/03/01 06:56:38;;;;;;;67.77;34.10;;;1.60;99.90;;;;;;5080717;28;20793;-65
2023/03/01 06:59:26;;;;;;;77.80;37.07;;;1.70;99.90;;;;;;5071108;28;21009;-67
2023/03/01 07:02:17;;;;;;;88.50;43.73;;;1.70;99.90;;;;;;5112650;27;21097;-66
2023/03/01 07:05:06;;;;;;;77.40;36.47;;;1.80;99.90;;;;;;5075194;28;20234;-68
2023/03/01 07:07:56;;;;;;;67.63;35.10;;;1.90;99.90;;;;;;5083459;28;20224;-67
2023/03/01 07:10:44;;;;;;;69.53;33.87;;;1.90;99.90;;;;;;5074029;28;20240;-67
2023/03/01 07:13:33;;;;;;;65.73;34.40;;;1.90;99.90;;;;;;5073045;28;20224;-66
2023/03/01 07:16:22;;;;;;;64.53;34.10;;;1.90;99.90;;;;;;5075808;27;20636;-68
2023/03/01 07:19:12;;;;;;;67.73;34.20;;;2.00;99.90;;;;;;5077909;28;20215;-67
2023/03/01 07:22:01;;;;;;;63.73;34.20;;;1.90;99.90;;;;;;5081451;28;20216;-66
2023/03/01 07:24:50;;;;;;;63.80;33.47;;;1.90;99.90;;;;;;5078370;28;20311;-67
2023/03/01 07:27:40;;;;;;;67.10;34.07;;;2.10;99.90;;;;;;5072820;28;20238;-66
2023/03/01 07:30:29;;;;;;;71.00;32.70;;;2.20;99.90;;;;;;5068716;28;20220;-66
2023/03/01 07:33:18;;;;;;;66.37;33.13;;;2.30;99.90;;;;;;5081521;28;20224;-67
2023/03/01 07:36:10;;;;;;;58.17;31.30;;;2.40;99.90;;;;;;5080533;28;20970;-67
2023/03/01 07:38:58;;;;;;;56.83;31.43;;;2.30;99.90;;;;;;5078374;28;20242;-66
2023/03/01 07:41:47;;;;;;;60.20;30.47;;;2.40;99.90;;;;;;5101342;27;20220;-67
2023/03/01 07:44:38;;;;;;;54.27;30.47;;;2.40;99.90;;;;;;5071649;28;20659;-66
2023/03/01 07:47:26;;;;;;;55.60;28.70;;;2.50;99.90;;;;;;5077859;28;20242;-66
2023/03/01 07:50:15;;;;;;;61.93;30.10;;;2.50;99.90;;;;;;5079088;28;20228;-68
2023/03/01 07:53:06;;;;;;;56.53;30.67;;;2.60;99.90;;;;;;5069346;28;20216;-67
2023/03/01 07:56:02;;;;;;;54.47;29.63;;;2.60;99.90;;;;;;5068749;28;20621;-66
2023/03/01 07:58:50;;;;;;;50.07;30.07;;;2.70;99.90;;;;;;5086808;28;20217;-67
2023/03/01 08:01:39;;;;;;;65.33;29.20;;;2.90;99.90;;;;;;5079204;27;20216;-67
2023/03/01 08:04:28;;;;;;;59.67;28.67;;;3.00;99.90;;;;;;5079186;28;20254;-65
2023/03/01 08:07:17;;;;;;;57.67;27.97;;;3.10;99.90;;;;;;5075830;27;20221;-67
2023/03/01 08:10:08;;;;;;;47.03;27.37;;;3.30;99.90;;;;;;5075718;28;20245;-66
2023/03/01 08:12:57;;;;;;;46.50;24.57;;;3.60;99.90;;;;;;5067053;28;20293;-66
2023/03/01 08:15:46;;;;;;;46.90;24.77;;;4.00;99.90;;;;;;5075477;28;20591;-65
2023/03/01 08:18:38;;;;;;;53.10;27.53;;;4.50;99.90;;;;;;5073490;28;20232;-65
2023/03/01 08:21:27;;;;;;;45.37;25.33;;;4.60;99.90;;;;;;5074093;28;20705;-66
2023/03/01 08:24:16;;;;;;;46.03;24.63;;;4.40;99.90;;;;;;5078511;28;20883;-65
2023/03/01 08:27:06;;;;;;;42.80;23.33;;;4.30;99.90;;;;;;5071978;28;20303;-66
2023/03/01 08:29:55;;;;;;;43.07;24.23;;;4.20;99.90;;;;;;5076314;28;20590;-66
2023/03/01 08:32:44;;;;;;;47.20;24.97;;;4.50;99.90;;;;;;5080001;28;20230;-66
2023/03/01 08:35:33;;;;;;;44.73;24.47;;;4.50;99.90;;;;;;5073250;28;20258;-66
2023/03/01 08:38:24;;;;;;;46.43;24.10;;;4.60;99.90;;;;;;5073650;28;20235;-68
2023/03/01 08:41:12;;;;;;;44.93;24.17;;;4.70;99.90;;;;;;5091572;28;20231;-66
2023/03/01 08:44:03;;;;;;;47.20;24.00;;;5.20;99.90;;;;;;5080747;28;20438;-68
2023/03/01 08:46:53;;;;;;;53.80;28.13;;;5.40;99.90;;;;;;5077084;28;20598;-68
2023/03/01 08:49:41;;;;;;;50.33;25.13;;;5.50;99.90;;;;;;5101554;27;20223;-68
2023/03/01 08:52:30;;;;;;;48.00;24.70;;;5.70;99.90;;;;;;5078868;27;20224;-67
2023/03/01 08:55:19;;;;;;;50.27;27.20;;;5.80;99.90;;;;;;5078207;28;20595;-68
2023/03/01 08:58:08;;;;;;;53.17;26.57;;;6.30;99.90;;;;;;5069911;28;20551;-69
2023/03/01 09:00:58;;;;;;;42.90;24.53;;;6.60;99.90;;;;;;5072604;28;20682;-68
2023/03/01 09:03:48;;;;;;;39.73;23.57;;;7.00;99.90;;;;;;5075245;28;20248;-68
2023/03/01 09:06:37;;;;;;;38.90;24.63;;;7.10;99.90;;;;;;5097266;27;20560;-68
2023/03/01 09:09:25;;;;;;;43.37;24.97;;;7.30;99.90;;;;;;5080355;28;20569;-68
2023/03/01 09:12:14;;;;;;;45.13;25.47;;;7.10;99.90;;;;;;5076819;28;21003;-67
2023/03/01 09:15:28;;;;;;;43.27;24.47;;;6.80;99.90;;;;;;5077485;28;20384;-69
2023/03/01 09:18:18;;;;;;;42.33;24.40;;;6.40;99.90;;;;;;5101418;27;20241;-69
2023/03/01 09:21:10;;;;;;;42.07;23.67;;;6.20;99.90;;;;;;5082795;28;20232;-68
2023/03/01 09:23:59;;;;;;;42.63;23.47;;;6.10;99.90;;;;;;5075286;28;20322;-69
2023/03/01 09:26:48;;;;;;;41.90;26.60;;;6.10;99.90;;;;;;5099289;27;20436;-67
2023/03/01 09:32:14;;;;;;;41.63;24.10;;;6.10;99.90;;;;;;5058438;27;20652;-67
2023/03/01 09:35:06;;;;;;;40.40;24.40;;;6.10;99.90;;;;;;5058533;28;20235;-66
2023/03/01 09:37:55;;;;;;;40.57;24.13;;;6.10;99.90;;;;;;5057343;28;20747;-63
2023/03/01 09:40:46;;;;;;;41.83;23.53;;;6.00;99.90;;;;;;5064894;28;20218;-65
2023/03/01 09:43:54;;;;;;;41.10;22.10;;;5.90;99.90;;;;;;5056803;28;20684;-63
2023/03/01 09:46:46;;;;;;;41.73;23.13;;;6.00;99.90;;;;;;5054973;28;20958;-66
2023/03/01 09:49:40;;;;;;;43.67;22.87;;;5.90;99.90;;;;;;5079096;28;20304;-63
2023/03/01 09:52:37;;;;;;;44.47;24.37;;;5.80;99.90;;;;;;5087024;28;20231;-61
2023/03/01 09:55:30;;;;;;;35.87;21.27;;;5.80;99.90;;;;;;5072289;28;20345;-62
2023/03/01 09:58:48;;;;;;;36.57;20.83;;;5.70;99.90;;;;;;5064836;28;20827;-63
2023/03/01 10:01:41;;;;;;;37.03;20.60;;;5.80;99.90;;;;;;5073740;28;20579;-62
2023/03/01 10:04:42;;;;;;;35.40;19.43;;;5.80;99.90;;;;;;5056537;28;20224;-62
2023/03/01 10:07:42;;;;;;;34.67;18.90;;;5.80;99.90;;;;;;5065791;28;20238;-63
2023/03/01 10:10:36;;;;;;;34.50;19.20;;;5.90;99.90;;;;;;5065983;28;20222;-62
2023/03/01 10:13:32;;;;;;;33.73;18.03;;;5.80;99.90;;;;;;5075967;28;20238;-62
2023/03/01 10:16:26;;;;;;;33.23;18.17;;;5.80;99.90;;;;;;5084166;28;21113;-61
2023/03/01 10:19:23;;;;;;;31.43;18.17;;;5.70;99.90;;;;;;5065674;28;20230;-63
2023/03/01 10:22:17;;;;;;;29.87;17.67;;;5.70;99.90;;;;;;5054050;28;20226;-62
2023/03/01 10:25:06;;;;;;;29.43;17.57;;;5.60;99.90;;;;;;5080399;28;20229;-61
2023/03/01 10:28:00;;;;;;;32.73;17.83;;;5.70;99.90;;;;;;5066894;28;20571;-62
2023/03/01 10:30:49;;;;;;;34.87;18.27;;;5.80;99.90;;;;;;5057460;28;20392;-61
2023/03/01 10:33:40;;;;;;;30.97;18.17;;;5.80;99.90;;;;;;5078861;28;20218;-61
2023/03/01 10:36:33;;;;;;;32.27;17.83;;;5.70;99.90;;;;;;5064260;28;20234;-63
2023/03/01 10:39:25;;;;;;;31.40;17.60;;;6.00;99.90;;;;;;5071045;28;20250;-63
2023/03/01 10:42:23;;;;;;;34.60;17.90;;;6.00;99.90;;;;;;5066414;28;20752;-62
2023/03/01 10:45:34;;;;;;;31.87;16.57;;;6.00;99.90;;;;;;5044607;28;20228;-62
2023/03/01 10:48:26;;;;;;;29.90;17.40;;;6.10;99.90;;;;;;5047485;28;20220;-62
2023/03/01 10:51:20;;;;;;;30.20;16.23;;;6.10;99.90;;;;;;5036986;28;20576;-63
2023/03/01 10:54:18;;;;;;;25.93;16.07;;;6.20;99.90;;;;;;5050160;28;20228;-62
2023/03/01 10:57:32;;;;;;;28.37;15.80;;;6.30;99.90;;;;;;5041133;28;20217;-63
2023/03/01 11:00:24;;;;;;;28.33;15.93;;;6.10;99.90;;;;;;5060508;28;20634;-62
2023/03/01 11:03:15;;;;;;;27.07;15.37;;;6.10;99.90;;;;;;5049082;28;20327;-62
2023/03/01 11:06:07;;;;;;;22.00;14.47;;;6.10;99.90;;;;;;5064677;28;20552;-62
2023/03/01 11:08:56;;;;;;;25.80;14.10;;;6.20;99.90;;;;;;5066578;28;20224;-62
2023/03/01 11:11:46;;;;;;;25.53;14.00;;;6.30;99.90;;;;;;5065750;28;20216;-62
2023/03/01 11:14:40;;;;;;;24.47;15.27;;;6.30;99.90;;;;;;5064134;28;20221;-62
2023/03/01 11:17:31;;;;;;;23.07;13.67;;;6.30;99.90;;;;;;5074884;28;20310;-63
2023/03/01 11:20:31;;;;;;;24.90;13.47;;;6.40;99.90;;;;;;5064833;28;20902;-62
2023/03/01 11:23:21;;;;;;;25.63;12.97;;;6.50;99.90;;;;;;5061433;28;20244;-63
2023/03/01 11:26:10;;;;;;;21.33;13.07;;;6.60;99.90;;;;;;5065373;28;20263;-63
2023/03/01 11:29:06;;;;;;;24.30;13.33;;;6.70;99.90;;;;;;5057727;28;20217;-64
2023/03/01 11:31:58;;;;;;;20.10;11.97;;;6.70;99.90;;;;;;5045877;28;20267;-64
2023/03/01 11:34:52;;;;;;;22.80;13.20;;;6.80;99.90;;;;;;5060448;28;20233;-64
2023/03/01 11:37:45;;;;;;;28.50;15.43;;;6.70;99.90;;;;;;5062968;28;20383;-62
2023/03/01 11:40:40;;;;;;;37.90;13.63;;;6.70;99.90;;;;;;5050998;28;20220;-64
2023/03/01 11:43:34;;;;;;;23.70;13.20;;;6.70;99.90;;;;;;5057499;28;20941;-63
2023/03/01 11:46:46;;;;;;;42.13;24.90;;;6.70;99.90;;;;;;5066986;28;20532;-62
2023/03/01 11:50:00;;;;;;;24.60;14.93;;;6.70;99.90;;;;;;5065856;28;20230;-65
2023/03/01 11:53:03;;;;;;;24.53;13.60;;;6.80;99.90;;;;;;5066359;28;20232;-63
2023/03/01 11:56:04;;;;;;;22.33;12.93;;;6.80;99.90;;;;;;5054022;28;20227;-62
2023/03/01 11:59:21;;;;;;;22.60;13.50;;;6.70;99.90;;;;;;5064219;28;20280;-63
2023/03/01 12:02:35;;;;;;;25.37;14.20;;;6.80;99.90;;;;;;5045466;28;20232;-63
2023/03/01 12:06:03;;;;;;;23.83;13.43;;;6.80;99.90;;;;;;5051023;28;20221;-63
2023/03/01 12:09:07;;;;;;;26.10;14.00;;;6.80;99.90;;;;;;5060985;28;20228;-63
2023/03/01 12:12:19;;;;;;;23.63;13.20;;;6.70;99.90;;;;;;5050228;28;20228;-62
2023/03/01 12:15:51;;;;;;;21.50;13.27;;;6.70;99.90;;;;;;5060851;28;20705;-63
2023/03/01 12:19:09;;;;;;;21.93;13.20;;;6.90;99.90;;;;;;5062478;28;20809;-62
2023/03/01 12:22:14;;;;;;;21.53;13.10;;;7.00;99.90;;;;;;5023096;28;20231;-62
2023/03/01 12:25:17;;;;;;;23.60;14.37;;;7.00;99.90;;;;;;5046928;28;20247;-62
2023/03/01 12:28:32;;;;;;;22.40;13.10;;;7.10;99.90;;;;;;5046269;28;20774;-63
2023/03/01 12:31:48;;;;;;;25.07;13.07;;;7.00;99.90;;;;;;5050742;28;20601;-63
2023/03/01 12:35:03;;;;;;;97.43;18.17;;;7.00;99.90;;;;;;5061411;28;20242;-63
2023/03/01 12:38:15;;;;;;;32.53;13.50;;;7.00;99.90;;;;;;5057771;28;20750;-62
2023/03/01 12:41:39;;;;;;;23.73;13.73;;;7.00;99.90;;;;;;5056752;28;20229;-63
2023/03/01 12:44:53;;;;;;;23.07;13.60;;;7.10;99.90;;;;;;5054438;28;20224;-63
2023/03/01 12:47:57;;;;;;;19.93;12.53;;;7.10;99.90;;;;;;5048999;28;20238;-63
2023/03/01 12:50:49;;;;;;;24.23;13.47;;;7.10;99.90;;;;;;5053895;28;20503;-63
2023/03/01 12:53:43;;;;;;;23.07;13.57;;;7.20;99.90;;;;;;5051158;28;20220;-62
2023/03/01 12:56:37;;;;;;;24.37;13.97;;;7.10;99.90;;;;;;5063194;28;20224;-63
2023/03/01 12:59:37;;;;;;;22.37;13.90;;;7.20;99.90;;;;;;5052362;28;20228;-62
2023/03/01 13:02:32;;;;;;;22.17;13.33;;;7.30;99.90;;;;;;5036836;28;20259;-63
2023/03/01 13:05:30;;;;;;;27.03;14.07;;;7.30;99.90;;;;;;5055163;28;20229;-63
2023/03/01 13:08:28;;;;;;;27.23;14.10;;;7.30;99.90;;;;;;5052115;28;20593;-64
2023/03/01 13:11:21;;;;;;;24.23;14.00;;;7.30;99.90;;;;;;5035920;28;20778;-63
2023/03/01 13:14:44;;;;;;;24.17;12.50;;;7.30;99.90;;;;;;5042416;28;20243;-64
2023/03/01 13:17:42;;;;;;;28.00;13.97;;;7.30;99.90;;;;;;5046727;28;20227;-63
2023/03/01 13:20:33;;;;;;;30.97;16.93;;;7.40;99.90;;;;;;5048414;28;20252;-62
2023/03/01 13:23:27;;;;;;;27.43;15.57;;;7.40;99.90;;;;;;5052943;28;20698;-62
2023/03/01 13:26:18;;;;;;;22.97;13.87;;;7.40;99.90;;;;;;5057931;28;20565;-63
2023/03/01 13:29:27;;;;;;;22.77;13.97;;;7.40;99.90;;;;;;5054807;28;20706;-63
2023/03/01 13:32:24;;;;;;;20.90;13.13;;;7.40;99.90;;;;;;5059692;28;20262;-62
2023/03/01 13:35:45;;;;;;;21.80;13.03;;;7.40;99.90;;;;;;5032302;28;20232;-62
2023/03/01 13:38:47;;;;;;;21.63;13.60;;;7.40;99.90;;;;;;5042688;28;20258;-66
2023/03/01 13:41:54;;;;;;;20.50;13.47;;;7.50;99.90;;;;;;5043597;28;20233;-63
2023/03/01 13:44:44;;;;;;;35.40;18.73;;;7.50;99.90;;;;;;5034019;28;20599;-62
2023/03/01 13:47:35;;;;;;;23.57;14.90;;;7.50;99.90;;;;;;5041670;28;20233;-64
2023/03/01 13:50:26;;;;;;;29.27;14.77;;;7.60;99.90;;;;;;5042086;28;20224;-62
2023/03/01 13:53:18;;;;;;;25.40;13.80;;;7.60;99.90;;;;;;5038294;28;20228;-62
2023/03/01 13:56:10;;;;;;;44.13;17.83;;;7.60;99.90;;;;;;5057510;28;20228;-62
2023/03/01 13:59:05;;;;;;;23.00;14.07;;;7.60;99.90;;;;;;5046777;28;20266;-62
2023/03/01 14:01:55;;;;;;;22.37;14.20;;;7.80;99.90;;;;;;5038906;28;20221;-63
2023/03/01 14:04:44;;;;;;;23.87;14.33;;;8.00;99.90;;;;;;5043869;28;20869;-62
2023/03/01 14:07:33;;;;;;;24.93;14.30;;;8.00;99.90;;;;;;5054175;28;20223;-64
2023/03/01 14:10:22;;;;;;;22.20;14.17;;;8.00;99.90;;;;;;5055996;28;20444;-63
2023/03/01 14:13:29;;;;;;;21.67;14.83;;;8.00;99.90;;;;;;5046623;28;20239;-63
2023/03/01 14:16:30;;;;;;;23.03;13.77;;;8.20;99.90;;;;;;5032348;28;20273;-64
2023/03/01 14:19:24;;;;;;;21.97;14.07;;;8.20;99.90;;;;;;5074933;28;20714;-63
2023/03/01 14:22:25;;;;;;;24.67;14.67;;;8.20;99.90;;;;;;5054278;28;20304;-62
2023/03/01 14:25:32;;;;;;;26.87;15.40;;;8.20;99.90;;;;;;5051368;28;20226;-63
2023/03/01 14:28:24;;;;;;;20.80;14.20;;;8.20;99.90;;;;;;5043800;28;20724;-61
2023/03/01 14:31:42;;;;;;;22.40;14.27;;;8.20;99.90;;;;;;5045073;28;20336;-63
2023/03/01 14:34:45;;;;;;;22.43;15.07;;;8.30;99.90;;;;;;5004965;28;20238;-62
2023/03/01 14:37:35;;;;;;;24.23;14.13;;;8.30;99.90;;;;;;5024357;28;20229;-62
2023/03/01 14:40:27;;;;;;;22.77;14.43;;;8.30;99.90;;;;;;5024830;28;20231;-63
2023/03/01 14:43:23;;;;;;;22.90;13.87;;;8.30;99.90;;;;;;5026466;28;20232;-62
2023/03/01 14:46:20;;;;;;;22.33;14.07;;;8.20;99.90;;;;;;5023142;28;20733;-62
2023/03/01 14:49:15;;;;;;;21.63;14.17;;;8.20;99.90;;;;;;5019709;28;20809;-62
2023/03/01 14:52:07;;;;;;;22.03;14.00;;;8.10;99.90;;;;;;5031258;28;20224;-61